sensor_id;sensor_type;location;lat;lon;timestamp;P1;durP1;ratioP1;P2;durP2;ratioP2
20709;SDS011;10516;51.518;9.864;2022-09-09T00:04:17;1.65;;;1.48;;
20709;SDS011;10516;51.518;9.864;2022-09-09T00:06:23;4.78;;;1.83;;
20709;SDS011;10516;51.518;9.864;2022-09-09T00:08:58;5.03;;;1.90;;
20709;SDS011;10516;51.518;9.864;2022-09-09T00:11:31;4.78;;;1.70;;
20709;SDS011;10516;51.518;9.864;2022-09-09T00:14:08;3.03;;;2.03;;
20709;SDS011;10516;51.518;9.864;2022-09-09T00:16:40;5.55;;;2.92;;
20709;SDS011;10516;51.518;9.864;2022-09-09T00:19:16;5.68;;;1.50;;
20709;SDS011;10516;51.518;9.864;2022-09-09T00:27:13;2.97;;;1.90;;
20709;SDS011;10516;51.518;9.864;2022-09-09T00:32:37;9.80;;;1.70;;
20709;SDS011;10516;51.518;9.864;2022-09-09T00:35:04;3.33;;;1.95;;
20709;SDS011;10516;51.518;9.864;2022-09-09T00:37:41;4.07;;;1.85;;
20709;SDS011;10516;51.518;9.864;2022-09-09T00:40:24;3.88;;;2.13;;
20709;SDS011;10516;51.518;9.864;2022-09-09T00:51:09;5.10;;;1.77;;
20709;SDS011;10516;51.518;9.864;2022-09-09T00:56:31;4.38;;;2.30;;
20709;SDS011;10516;51.518;9.864;2022-09-09T00:59:16;2.90;;;1.73;;
20709;SDS011;10516;51.518;9.864;2022-09-09T01:01:47;2.88;;;2.00;;
20709;SDS011;10516;51.518;9.864;2022-09-09T01:04:16;4.50;;;2.13;;
20709;SDS011;10516;51.518;9.864;2022-09-09T01:06:46;4.65;;;1.92;;
20709;SDS011;10516;51.518;9.864;2022-09-09T01:12:22;4.53;;;2.33;;
20709;SDS011;10516;51.518;9.864;2022-09-09T01:14:49;5.88;;;1.70;;
20709;SDS011;10516;51.518;9.864;2022-09-09T01:22:13;2.33;;;1.70;;
20709;SDS011;10516;51.518;9.864;2022-09-09T01:25:06;1.60;;;1.50;;
20709;SDS011;10516;51.518;9.864;2022-09-09T01:27:34;3.30;;;1.50;;
20709;SDS011;10516;51.518;9.864;2022-09-09T01:30:04;1.80;;;1.48;;
20709;SDS011;10516;51.518;9.864;2022-09-09T01:32:44;3.07;;;1.90;;
20709;SDS011;10516;51.518;9.864;2022-09-09T01:35:23;2.85;;;1.98;;
20709;SDS011;10516;51.518;9.864;2022-09-09T01:37:52;6.75;;;2.08;;
20709;SDS011;10516;51.518;9.864;2022-09-09T01:40:17;6.80;;;2.20;;
20709;SDS011;10516;51.518;9.864;2022-09-09T01:42:43;3.00;;;1.80;;
20709;SDS011;10516;51.518;9.864;2022-09-09T01:45:08;4.72;;;2.00;;
20709;SDS011;10516;51.518;9.864;2022-09-09T01:47:34;7.55;;;2.85;;
20709;SDS011;10516;51.518;9.864;2022-09-09T01:50:00;6.65;;;2.85;;
20709;SDS011;10516;51.518;9.864;2022-09-09T01:52:27;7.18;;;2.40;;
20709;SDS011;10516;51.518;9.864;2022-09-09T01:54:53;2.60;;;2.20;;
20709;SDS011;10516;51.518;9.864;2022-09-09T01:57:26;5.53;;;2.08;;
20709;SDS011;10516;51.518;9.864;2022-09-09T02:00:08;3.58;;;2.25;;
20709;SDS011;10516;51.518;9.864;2022-09-09T02:08:10;4.72;;;2.00;;
20709;SDS011;10516;51.518;9.864;2022-09-09T02:10:42;5.03;;;2.05;;
20709;SDS011;10516;51.518;9.864;2022-09-09T02:13:15;7.95;;;2.13;;
20709;SDS011;10516;51.518;9.864;2022-09-09T02:15:55;9.32;;;2.90;;
20709;SDS011;10516;51.518;9.864;2022-09-09T02:18:30;6.55;;;2.33;;
20709;SDS011;10516;51.518;9.864;2022-09-09T02:21:00;4.20;;;2.28;;
20709;SDS011;10516;51.518;9.864;2022-09-09T02:23:27;2.83;;;2.08;;
20709;SDS011;10516;51.518;9.864;2022-09-09T02:25:53;5.68;;;2.60;;
20709;SDS011;10516;51.518;9.864;2022-09-09T02:28:23;3.03;;;2.13;;
20709;SDS011;10516;51.518;9.864;2022-09-09T02:30:51;3.80;;;2.58;;
20709;SDS011;10516;51.518;9.864;2022-09-09T02:33:22;7.63;;;2.78;;
20709;SDS011;10516;51.518;9.864;2022-09-09T02:35:50;2.63;;;2.00;;
20709;SDS011;10516;51.518;9.864;2022-09-09T02:38:18;4.18;;;2.08;;
20709;SDS011;10516;51.518;9.864;2022-09-09T02:40:47;5.10;;;2.22;;
20709;SDS011;10516;51.518;9.864;2022-09-09T02:43:14;2.65;;;2.13;;
20709;SDS011;10516;51.518;9.864;2022-09-09T02:45:42;4.30;;;2.20;;
20709;SDS011;10516;51.518;9.864;2022-09-09T02:48:45;2.22;;;1.75;;
20709;SDS011;10516;51.518;9.864;2022-09-09T02:51:23;2.63;;;2.05;;
20709;SDS011;10516;51.518;9.864;2022-09-09T02:56:54;3.08;;;2.17;;
20709;SDS011;10516;51.518;9.864;2022-09-09T02:59:21;2.88;;;1.95;;
20709;SDS011;10516;51.518;9.864;2022-09-09T03:01:49;5.45;;;2.65;;
20709;SDS011;10516;51.518;9.864;2022-09-09T03:04:17;4.95;;;1.95;;
20709;SDS011;10516;51.518;9.864;2022-09-09T03:06:42;4.05;;;2.30;;
20709;SDS011;10516;51.518;9.864;2022-09-09T03:09:08;3.67;;;2.60;;
20709;SDS011;10516;51.518;9.864;2022-09-09T03:11:35;5.18;;;1.90;;
20709;SDS011;10516;51.518;9.864;2022-09-09T03:14:01;3.00;;;1.85;;
20709;SDS011;10516;51.518;9.864;2022-09-09T03:16:27;4.07;;;2.50;;
20709;SDS011;10516;51.518;9.864;2022-09-09T03:18:52;6.15;;;2.40;;
20709;SDS011;10516;51.518;9.864;2022-09-09T03:21:17;3.88;;;1.92;;
20709;SDS011;10516;51.518;9.864;2022-09-09T03:23:43;13.43;;;2.70;;
20709;SDS011;10516;51.518;9.864;2022-09-09T03:26:10;4.13;;;2.20;;
20709;SDS011;10516;51.518;9.864;2022-09-09T03:28:35;5.43;;;2.05;;
20709;SDS011;10516;51.518;9.864;2022-09-09T03:31:01;8.68;;;2.78;;
20709;SDS011;10516;51.518;9.864;2022-09-09T03:33:28;4.95;;;2.55;;
20709;SDS011;10516;51.518;9.864;2022-09-09T03:35:54;7.18;;;3.05;;
20709;SDS011;10516;51.518;9.864;2022-09-09T03:38:21;9.35;;;2.50;;
20709;SDS011;10516;51.518;9.864;2022-09-09T03:40:49;3.95;;;2.67;;
20709;SDS011;10516;51.518;9.864;2022-09-09T03:43:16;3.50;;;2.28;;
20709;SDS011;10516;51.518;9.864;2022-09-09T03:45:45;6.55;;;2.90;;
20709;SDS011;10516;51.518;9.864;2022-09-09T03:48:12;4.70;;;2.75;;
20709;SDS011;10516;51.518;9.864;2022-09-09T03:50:38;4.43;;;2.28;;
20709;SDS011;10516;51.518;9.864;2022-09-09T03:53:03;5.15;;;2.70;;
20709;SDS011;10516;51.518;9.864;2022-09-09T03:55:30;6.57;;;2.70;;
20709;SDS011;10516;51.518;9.864;2022-09-09T03:57:57;5.45;;;2.35;;
20709;SDS011;10516;51.518;9.864;2022-09-09T04:00:22;7.03;;;2.67;;
20709;SDS011;10516;51.518;9.864;2022-09-09T04:02:48;6.72;;;2.67;;
20709;SDS011;10516;51.518;9.864;2022-09-09T04:05:14;6.80;;;2.65;;
20709;SDS011;10516;51.518;9.864;2022-09-09T04:07:40;7.28;;;2.80;;
20709;SDS011;10516;51.518;9.864;2022-09-09T04:10:06;3.03;;;2.60;;
20709;SDS011;10516;51.518;9.864;2022-09-09T04:12:32;8.20;;;2.40;;
20709;SDS011;10516;51.518;9.864;2022-09-09T04:14:57;5.22;;;2.10;;
20709;SDS011;10516;51.518;9.864;2022-09-09T04:17:22;4.00;;;2.15;;
20709;SDS011;10516;51.518;9.864;2022-09-09T04:19:48;7.90;;;2.53;;
20709;SDS011;10516;51.518;9.864;2022-09-09T04:22:13;6.40;;;2.55;;
20709;SDS011;10516;51.518;9.864;2022-09-09T04:24:39;6.15;;;2.85;;
20709;SDS011;10516;51.518;9.864;2022-09-09T04:27:04;4.30;;;2.50;;
20709;SDS011;10516;51.518;9.864;2022-09-09T04:29:29;4.55;;;2.40;;
20709;SDS011;10516;51.518;9.864;2022-09-09T04:31:55;5.68;;;2.38;;
20709;SDS011;10516;51.518;9.864;2022-09-09T04:34:20;3.17;;;2.53;;
20709;SDS011;10516;51.518;9.864;2022-09-09T04:36:46;6.75;;;2.53;;
20709;SDS011;10516;51.518;9.864;2022-09-09T04:39:11;6.60;;;2.53;;
20709;SDS011;10516;51.518;9.864;2022-09-09T04:41:36;4.72;;;2.80;;
20709;SDS011;10516;51.518;9.864;2022-09-09T04:44:02;3.30;;;2.67;;
20709;SDS011;10516;51.518;9.864;2022-09-09T04:46:28;4.65;;;2.40;;
20709;SDS011;10516;51.518;9.864;2022-09-09T04:48:54;8.25;;;3.08;;
20709;SDS011;10516;51.518;9.864;2022-09-09T04:51:19;7.05;;;2.80;;
20709;SDS011;10516;51.518;9.864;2022-09-09T04:53:46;4.47;;;2.70;;
20709;SDS011;10516;51.518;9.864;2022-09-09T04:56:16;3.35;;;1.98;;
20709;SDS011;10516;51.518;9.864;2022-09-09T04:58:42;5.03;;;2.38;;
20709;SDS011;10516;51.518;9.864;2022-09-09T05:01:09;7.35;;;2.65;;
20709;SDS011;10516;51.518;9.864;2022-09-09T05:03:36;6.15;;;2.70;;
20709;SDS011;10516;51.518;9.864;2022-09-09T05:06:09;7.07;;;2.28;;
20709;SDS011;10516;51.518;9.864;2022-09-09T05:08:37;5.00;;;3.47;;
20709;SDS011;10516;51.518;9.864;2022-09-09T05:11:04;4.50;;;2.88;;
20709;SDS011;10516;51.518;9.864;2022-09-09T05:13:42;6.38;;;2.28;;
20709;SDS011;10516;51.518;9.864;2022-09-09T05:16:09;4.68;;;2.50;;
20709;SDS011;10516;51.518;9.864;2022-09-09T05:18:36;5.75;;;2.65;;
20709;SDS011;10516;51.518;9.864;2022-09-09T05:21:03;3.50;;;2.22;;
20709;SDS011;10516;51.518;9.864;2022-09-09T05:23:28;5.07;;;2.30;;
20709;SDS011;10516;51.518;9.864;2022-09-09T05:25:57;6.75;;;2.75;;
20709;SDS011;10516;51.518;9.864;2022-09-09T05:28:23;8.13;;;2.42;;
20709;SDS011;10516;51.518;9.864;2022-09-09T05:30:57;6.30;;;3.15;;
20709;SDS011;10516;51.518;9.864;2022-09-09T05:33:23;2.30;;;2.10;;
20709;SDS011;10516;51.518;9.864;2022-09-09T05:35:59;3.78;;;3.08;;
20709;SDS011;10516;51.518;9.864;2022-09-09T05:38:28;9.25;;;2.65;;
20709;SDS011;10516;51.518;9.864;2022-09-09T05:40:53;5.18;;;3.33;;
20709;SDS011;10516;51.518;9.864;2022-09-09T05:43:21;8.05;;;3.15;;
20709;SDS011;10516;51.518;9.864;2022-09-09T05:45:58;2.95;;;2.55;;
20709;SDS011;10516;51.518;9.864;2022-09-09T05:48:30;3.63;;;3.08;;
20709;SDS011;10516;51.518;9.864;2022-09-09T05:50:56;5.78;;;2.38;;
20709;SDS011;10516;51.518;9.864;2022-09-09T05:53:22;3.08;;;2.47;;
20709;SDS011;10516;51.518;9.864;2022-09-09T05:55:47;5.18;;;3.10;;
20709;SDS011;10516;51.518;9.864;2022-09-09T05:58:13;6.03;;;2.88;;
20709;SDS011;10516;51.518;9.864;2022-09-09T06:00:40;3.70;;;3.15;;
20709;SDS011;10516;51.518;9.864;2022-09-09T06:03:05;6.93;;;2.72;;
20709;SDS011;10516;51.518;9.864;2022-09-09T06:05:32;3.30;;;2.17;;
20709;SDS011;10516;51.518;9.864;2022-09-09T06:07:57;2.97;;;2.08;;
20709;SDS011;10516;51.518;9.864;2022-09-09T06:10:23;3.63;;;2.50;;
20709;SDS011;10516;51.518;9.864;2022-09-09T06:12:48;5.75;;;2.25;;
20709;SDS011;10516;51.518;9.864;2022-09-09T06:15:13;3.33;;;2.55;;
20709;SDS011;10516;51.518;9.864;2022-09-09T06:17:39;3.67;;;2.20;;
20709;SDS011;10516;51.518;9.864;2022-09-09T06:20:06;6.85;;;2.85;;
20709;SDS011;10516;51.518;9.864;2022-09-09T06:22:34;8.18;;;2.53;;
20709;SDS011;10516;51.518;9.864;2022-09-09T06:24:59;4.50;;;2.38;;
20709;SDS011;10516;51.518;9.864;2022-09-09T06:27:26;5.20;;;2.38;;
20709;SDS011;10516;51.518;9.864;2022-09-09T06:29:52;10.07;;;3.22;;
20709;SDS011;10516;51.518;9.864;2022-09-09T06:32:18;5.55;;;2.10;;
20709;SDS011;10516;51.518;9.864;2022-09-09T06:34:43;3.88;;;2.08;;
20709;SDS011;10516;51.518;9.864;2022-09-09T06:37:10;6.15;;;2.42;;
20709;SDS011;10516;51.518;9.864;2022-09-09T06:39:35;5.85;;;4.07;;
20709;SDS011;10516;51.518;9.864;2022-09-09T06:42:01;6.60;;;2.80;;
20709;SDS011;10516;51.518;9.864;2022-09-09T06:44:26;4.80;;;2.88;;
20709;SDS011;10516;51.518;9.864;2022-09-09T06:46:52;7.65;;;3.75;;
20709;SDS011;10516;51.518;9.864;2022-09-09T06:49:17;11.73;;;5.00;;
20709;SDS011;10516;51.518;9.864;2022-09-09T06:51:43;6.35;;;3.90;;
20709;SDS011;10516;51.518;9.864;2022-09-09T06:54:09;6.72;;;3.70;;
20709;SDS011;10516;51.518;9.864;2022-09-09T06:56:36;5.50;;;2.95;;
20709;SDS011;10516;51.518;9.864;2022-09-09T06:59:07;2.35;;;2.15;;
20709;SDS011;10516;51.518;9.864;2022-09-09T07:01:34;7.22;;;2.67;;
20709;SDS011;10516;51.518;9.864;2022-09-09T07:04:01;5.75;;;3.38;;
20709;SDS011;10516;51.518;9.864;2022-09-09T07:06:32;11.80;;;3.28;;
20709;SDS011;10516;51.518;9.864;2022-09-09T07:09:04;5.22;;;2.40;;
20709;SDS011;10516;51.518;9.864;2022-09-09T07:11:32;6.53;;;2.90;;
20709;SDS011;10516;51.518;9.864;2022-09-09T07:14:02;3.80;;;2.17;;
20709;SDS011;10516;51.518;9.864;2022-09-09T07:16:27;4.32;;;1.98;;
20709;SDS011;10516;51.518;9.864;2022-09-09T07:18:54;2.35;;;2.10;;
20709;SDS011;10516;51.518;9.864;2022-09-09T07:21:23;2.75;;;2.08;;
20709;SDS011;10516;51.518;9.864;2022-09-09T07:23:51;6.47;;;3.00;;
20709;SDS011;10516;51.518;9.864;2022-09-09T07:26:17;3.88;;;2.10;;
20709;SDS011;10516;51.518;9.864;2022-09-09T07:28:45;4.75;;;2.20;;
20709;SDS011;10516;51.518;9.864;2022-09-09T07:31:18;2.97;;;2.22;;
20709;SDS011;10516;51.518;9.864;2022-09-09T07:33:46;4.07;;;2.53;;
20709;SDS011;10516;51.518;9.864;2022-09-09T07:36:13;2.25;;;1.77;;
20709;SDS011;10516;51.518;9.864;2022-09-09T07:38:41;3.22;;;2.10;;
20709;SDS011;10516;51.518;9.864;2022-09-09T07:41:11;5.13;;;2.08;;
20709;SDS011;10516;51.518;9.864;2022-09-09T07:43:39;6.75;;;2.20;;
20709;SDS011;10516;51.518;9.864;2022-09-09T07:46:08;8.43;;;2.17;;
20709;SDS011;10516;51.518;9.864;2022-09-09T07:48:35;6.93;;;2.55;;
20709;SDS011;10516;51.518;9.864;2022-09-09T07:51:12;3.25;;;2.42;;
20709;SDS011;10516;51.518;9.864;2022-09-09T07:53:44;5.03;;;2.22;;
20709;SDS011;10516;51.518;9.864;2022-09-09T07:56:11;5.40;;;2.58;;
20709;SDS011;10516;51.518;9.864;2022-09-09T07:58:39;3.20;;;2.00;;
20709;SDS011;10516;51.518;9.864;2022-09-09T08:01:09;5.65;;;2.20;;
20709;SDS011;10516;51.518;9.864;2022-09-09T08:03:37;5.75;;;1.75;;
20709;SDS011;10516;51.518;9.864;2022-09-09T08:06:05;7.80;;;2.05;;
20709;SDS011;10516;51.518;9.864;2022-09-09T08:08:33;3.45;;;1.67;;
20709;SDS011;10516;51.518;9.864;2022-09-09T08:11:07;9.05;;;2.17;;
20709;SDS011;10516;51.518;9.864;2022-09-09T08:13:35;2.03;;;1.57;;
20709;SDS011;10516;51.518;9.864;2022-09-09T08:16:10;6.40;;;3.20;;
20709;SDS011;10516;51.518;9.864;2022-09-09T08:18:37;6.23;;;2.03;;
20709;SDS011;10516;51.518;9.864;2022-09-09T08:21:05;9.30;;;3.20;;
20709;SDS011;10516;51.518;9.864;2022-09-09T08:23:31;6.70;;;2.22;;
20709;SDS011;10516;51.518;9.864;2022-09-09T08:26:03;7.05;;;2.63;;
20709;SDS011;10516;51.518;9.864;2022-09-09T08:28:34;5.38;;;1.98;;
20709;SDS011;10516;51.518;9.864;2022-09-09T08:31:06;5.38;;;2.35;;
20709;SDS011;10516;51.518;9.864;2022-09-09T08:33:34;5.65;;;2.00;;
20709;SDS011;10516;51.518;9.864;2022-09-09T08:36:02;5.75;;;2.00;;
20709;SDS011;10516;51.518;9.864;2022-09-09T08:38:28;3.25;;;2.00;;
20709;SDS011;10516;51.518;9.864;2022-09-09T08:40:53;6.13;;;2.30;;
20709;SDS011;10516;51.518;9.864;2022-09-09T08:43:32;7.65;;;2.22;;
20709;SDS011;10516;51.518;9.864;2022-09-09T08:46:09;6.70;;;2.20;;
20709;SDS011;10516;51.518;9.864;2022-09-09T08:51:35;7.40;;;2.25;;
20709;SDS011;10516;51.518;9.864;2022-09-09T08:54:02;7.03;;;2.65;;
20709;SDS011;10516;51.518;9.864;2022-09-09T08:56:30;7.80;;;3.35;;
20709;SDS011;10516;51.518;9.864;2022-09-09T08:58:56;7.13;;;2.40;;
20709;SDS011;10516;51.518;9.864;2022-09-09T09:04:07;7.03;;;2.00;;
20709;SDS011;10516;51.518;9.864;2022-09-09T09:09:50;9.45;;;2.47;;
20709;SDS011;10516;51.518;9.864;2022-09-09T09:12:22;3.72;;;2.03;;
20709;SDS011;10516;51.518;9.864;2022-09-09T09:14:49;5.03;;;2.13;;
20709;SDS011;10516;51.518;9.864;2022-09-09T09:17:19;4.43;;;2.13;;
20709;SDS011;10516;51.518;9.864;2022-09-09T09:19:47;5.68;;;2.00;;
20709;SDS011;10516;51.518;9.864;2022-09-09T09:27:36;5.70;;;2.00;;
20709;SDS011;10516;51.518;9.864;2022-09-09T09:32:55;6.13;;;2.08;;
20709;SDS011;10516;51.518;9.864;2022-09-09T09:35:26;3.17;;;2.00;;
20709;SDS011;10516;51.518;9.864;2022-09-09T09:37:51;6.78;;;2.08;;
20709;SDS011;10516;51.518;9.864;2022-09-09T09:40:18;8.98;;;2.15;;
20709;SDS011;10516;51.518;9.864;2022-09-09T09:42:59;5.47;;;2.47;;
20709;SDS011;10516;51.518;9.864;2022-09-09T09:48:00;9.98;;;2.67;;
20709;SDS011;10516;51.518;9.864;2022-09-09T09:50:27;8.27;;;2.30;;
20709;SDS011;10516;51.518;9.864;2022-09-09T09:52:56;4.80;;;2.03;;
20709;SDS011;10516;51.518;9.864;2022-09-09T09:55:23;10.15;;;2.30;;
20709;SDS011;10516;51.518;9.864;2022-09-09T09:57:50;5.43;;;2.03;;
20709;SDS011;10516;51.518;9.864;2022-09-09T10:00:17;6.10;;;2.03;;
20709;SDS011;10516;51.518;9.864;2022-09-09T10:02:47;5.10;;;2.67;;
20709;SDS011;10516;51.518;9.864;2022-09-09T10:07:45;7.20;;;2.53;;
20709;SDS011;10516;51.518;9.864;2022-09-09T10:10:15;8.48;;;2.28;;
20709;SDS011;10516;51.518;9.864;2022-09-09T10:13:08;4.03;;;2.15;;
20709;SDS011;10516;51.518;9.864;2022-09-09T10:18:32;4.88;;;1.80;;
20709;SDS011;10516;51.518;9.864;2022-09-09T10:24:21;4.10;;;2.15;;
20709;SDS011;10516;51.518;9.864;2022-09-09T10:35:02;5.18;;;1.90;;
20709;SDS011;10516;51.518;9.864;2022-09-09T10:42:55;7.32;;;1.58;;
20709;SDS011;10516;51.518;9.864;2022-09-09T10:45:32;4.28;;;2.10;;
20709;SDS011;10516;51.518;9.864;2022-09-09T10:56:27;4.88;;;1.60;;
20709;SDS011;10516;51.518;9.864;2022-09-09T10:59:02;3.72;;;1.63;;
20709;SDS011;10516;51.518;9.864;2022-09-09T11:04:22;6.38;;;2.22;;
20709;SDS011;10516;51.518;9.864;2022-09-09T11:06:53;7.07;;;2.15;;
20709;SDS011;10516;51.518;9.864;2022-09-09T11:09:23;4.00;;;1.55;;
20709;SDS011;10516;51.518;9.864;2022-09-09T11:11:57;5.30;;;1.77;;
20709;SDS011;10516;51.518;9.864;2022-09-09T11:14:41;3.60;;;1.50;;
20709;SDS011;10516;51.518;9.864;2022-09-09T11:17:20;6.18;;;1.60;;
20709;SDS011;10516;51.518;9.864;2022-09-09T11:19:49;3.88;;;1.60;;
20709;SDS011;10516;51.518;9.864;2022-09-09T11:38:52;2.78;;;1.48;;
20709;SDS011;10516;51.518;9.864;2022-09-09T11:41:22;4.78;;;1.70;;
20709;SDS011;10516;51.518;9.864;2022-09-09T11:43:51;5.57;;;1.73;;
20709;SDS011;10516;51.518;9.864;2022-09-09T11:46:19;4.95;;;1.33;;
20709;SDS011;10516;51.518;9.864;2022-09-09T11:49:01;5.18;;;1.58;;
20709;SDS011;10516;51.518;9.864;2022-09-09T11:51:29;7.10;;;1.48;;
20709;SDS011;10516;51.518;9.864;2022-09-09T11:53:57;3.05;;;1.30;;
20709;SDS011;10516;51.518;9.864;2022-09-09T11:56:27;8.00;;;1.83;;
20709;SDS011;10516;51.518;9.864;2022-09-09T11:58:59;5.03;;;1.90;;
20709;SDS011;10516;51.518;9.864;2022-09-09T12:01:34;2.95;;;1.30;;
20709;SDS011;10516;51.518;9.864;2022-09-09T12:06:31;3.10;;;1.60;;
20709;SDS011;10516;51.518;9.864;2022-09-09T12:09:04;4.55;;;1.98;;
20709;SDS011;10516;51.518;9.864;2022-09-09T12:11:36;3.17;;;1.42;;
20709;SDS011;10516;51.518;9.864;2022-09-09T12:14:02;5.50;;;2.22;;
20709;SDS011;10516;51.518;9.864;2022-09-09T12:16:34;3.25;;;1.38;;
20709;SDS011;10516;51.518;9.864;2022-09-09T12:19:17;2.00;;;1.40;;
20709;SDS011;10516;51.518;9.864;2022-09-09T12:24:22;3.65;;;1.35;;
20709;SDS011;10516;51.518;9.864;2022-09-09T12:27:12;2.28;;;1.55;;
20709;SDS011;10516;51.518;9.864;2022-09-09T12:29:58;4.22;;;1.27;;
20709;SDS011;10516;51.518;9.864;2022-09-09T12:32:36;4.00;;;1.23;;
20709;SDS011;10516;51.518;9.864;2022-09-09T12:35:04;3.97;;;1.33;;
20709;SDS011;10516;51.518;9.864;2022-09-09T12:42:59;4.32;;;1.70;;
20709;SDS011;10516;51.518;9.864;2022-09-09T12:45:26;4.90;;;1.88;;
20709;SDS011;10516;51.518;9.864;2022-09-09T12:48:08;5.25;;;1.27;;
20709;SDS011;10516;51.518;9.864;2022-09-09T12:50:48;3.60;;;1.33;;
20709;SDS011;10516;51.518;9.864;2022-09-09T12:55:54;6.95;;;1.75;;
20709;SDS011;10516;51.518;9.864;2022-09-09T12:58:23;5.38;;;2.65;;
20709;SDS011;10516;51.518;9.864;2022-09-09T13:00:50;5.88;;;1.40;;
20709;SDS011;10516;51.518;9.864;2022-09-09T13:03:18;7.60;;;1.77;;
20709;SDS011;10516;51.518;9.864;2022-09-09T13:05:48;4.30;;;1.27;;
20709;SDS011;10516;51.518;9.864;2022-09-09T13:08:15;3.25;;;1.42;;
20709;SDS011;10516;51.518;9.864;2022-09-09T13:10:51;5.30;;;1.50;;
20709;SDS011;10516;51.518;9.864;2022-09-09T13:13:20;3.90;;;1.25;;
20709;SDS011;10516;51.518;9.864;2022-09-09T13:15:52;7.05;;;2.60;;
20709;SDS011;10516;51.518;9.864;2022-09-09T13:18:21;3.42;;;2.00;;
20709;SDS011;10516;51.518;9.864;2022-09-09T13:20:49;2.92;;;1.48;;
20709;SDS011;10516;51.518;9.864;2022-09-09T13:23:16;4.05;;;1.30;;
20709;SDS011;10516;51.518;9.864;2022-09-09T13:25:55;3.78;;;1.50;;
20709;SDS011;10516;51.518;9.864;2022-09-09T13:28:26;3.72;;;1.75;;
20709;SDS011;10516;51.518;9.864;2022-09-09T13:30:59;2.50;;;2.17;;
20709;SDS011;10516;51.518;9.864;2022-09-09T13:33:33;4.07;;;1.40;;
20709;SDS011;10516;51.518;9.864;2022-09-09T13:36:02;5.38;;;1.70;;
20709;SDS011;10516;51.518;9.864;2022-09-09T13:38:35;5.97;;;2.05;;
20709;SDS011;10516;51.518;9.864;2022-09-09T13:41:04;1.45;;;1.33;;
20709;SDS011;10516;51.518;9.864;2022-09-09T13:43:36;3.40;;;1.83;;
20709;SDS011;10516;51.518;9.864;2022-09-09T13:46:04;4.32;;;1.75;;
20709;SDS011;10516;51.518;9.864;2022-09-09T13:48:57;7.25;;;2.38;;
20709;SDS011;10516;51.518;9.864;2022-09-09T13:51:40;4.57;;;1.80;;
20709;SDS011;10516;51.518;9.864;2022-09-09T13:54:09;3.53;;;2.25;;
20709;SDS011;10516;51.518;9.864;2022-09-09T13:56:36;2.53;;;1.23;;
20709;SDS011;10516;51.518;9.864;2022-09-09T13:59:04;3.88;;;1.65;;
20709;SDS011;10516;51.518;9.864;2022-09-09T14:01:31;2.15;;;1.25;;
20709;SDS011;10516;51.518;9.864;2022-09-09T14:03:57;2.10;;;1.33;;
20709;SDS011;10516;51.518;9.864;2022-09-09T14:06:23;3.35;;;1.17;;
20709;SDS011;10516;51.518;9.864;2022-09-09T14:08:49;3.15;;;1.13;;
20709;SDS011;10516;51.518;9.864;2022-09-09T14:11:16;4.85;;;2.03;;
20709;SDS011;10516;51.518;9.864;2022-09-09T14:13:42;1.83;;;0.98;;
20709;SDS011;10516;51.518;9.864;2022-09-09T14:16:08;5.13;;;1.10;;
20709;SDS011;10516;51.518;9.864;2022-09-09T14:18:34;3.00;;;1.08;;
20709;SDS011;10516;51.518;9.864;2022-09-09T14:21:03;2.47;;;1.02;;
20709;SDS011;10516;51.518;9.864;2022-09-09T14:23:29;5.00;;;1.45;;
20709;SDS011;10516;51.518;9.864;2022-09-09T14:25:55;2.85;;;1.15;;
20709;SDS011;10516;51.518;9.864;2022-09-09T14:28:21;1.10;;;0.95;;
20709;SDS011;10516;51.518;9.864;2022-09-09T14:30:46;2.70;;;1.13;;
20709;SDS011;10516;51.518;9.864;2022-09-09T14:33:13;1.77;;;1.30;;
20709;SDS011;10516;51.518;9.864;2022-09-09T14:35:40;2.17;;;0.88;;
20709;SDS011;10516;51.518;9.864;2022-09-09T14:38:06;2.80;;;1.10;;
20709;SDS011;10516;51.518;9.864;2022-09-09T14:40:35;3.08;;;1.38;;
20709;SDS011;10516;51.518;9.864;2022-09-09T14:43:02;4.00;;;1.27;;
20709;SDS011;10516;51.518;9.864;2022-09-09T14:45:28;3.25;;;0.90;;
20709;SDS011;10516;51.518;9.864;2022-09-09T14:47:53;1.83;;;1.10;;
20709;SDS011;10516;51.518;9.864;2022-09-09T14:50:19;3.20;;;1.00;;
20709;SDS011;10516;51.518;9.864;2022-09-09T14:52:45;2.45;;;1.10;;
20709;SDS011;10516;51.518;9.864;2022-09-09T14:55:11;4.25;;;1.23;;
20709;SDS011;10516;51.518;9.864;2022-09-09T14:57:37;5.68;;;1.25;;
20709;SDS011;10516;51.518;9.864;2022-09-09T15:00:04;2.80;;;1.10;;
20709;SDS011;10516;51.518;9.864;2022-09-09T15:02:30;5.50;;;1.83;;
20709;SDS011;10516;51.518;9.864;2022-09-09T15:04:56;6.63;;;1.67;;
20709;SDS011;10516;51.518;9.864;2022-09-09T15:07:25;1.95;;;1.30;;
20709;SDS011;10516;51.518;9.864;2022-09-09T15:09:51;5.22;;;2.08;;
20709;SDS011;10516;51.518;9.864;2022-09-09T15:12:17;3.63;;;1.70;;
20709;SDS011;10516;51.518;9.864;2022-09-09T15:14:43;2.33;;;1.40;;
20709;SDS011;10516;51.518;9.864;2022-09-09T15:17:10;3.15;;;1.50;;
20709;SDS011;10516;51.518;9.864;2022-09-09T15:19:36;6.95;;;1.55;;
20709;SDS011;10516;51.518;9.864;2022-09-09T15:22:02;8.30;;;1.52;;
20709;SDS011;10516;51.518;9.864;2022-09-09T15:24:28;5.15;;;1.65;;
20709;SDS011;10516;51.518;9.864;2022-09-09T15:26:53;1.88;;;1.42;;
20709;SDS011;10516;51.518;9.864;2022-09-09T15:29:19;3.45;;;1.48;;
20709;SDS011;10516;51.518;9.864;2022-09-09T15:31:44;2.90;;;1.50;;
20709;SDS011;10516;51.518;9.864;2022-09-09T15:34:10;4.15;;;1.67;;
20709;SDS011;10516;51.518;9.864;2022-09-09T15:36:37;5.28;;;1.27;;
20709;SDS011;10516;51.518;9.864;2022-09-09T15:39:04;4.45;;;1.40;;
20709;SDS011;10516;51.518;9.864;2022-09-09T15:41:32;2.65;;;1.10;;
20709;SDS011;10516;51.518;9.864;2022-09-09T15:43:58;3.33;;;1.63;;
20709;SDS011;10516;51.518;9.864;2022-09-09T15:46:35;3.05;;;1.38;;
20709;SDS011;10516;51.518;9.864;2022-09-09T15:51:33;1.75;;;1.25;;
20709;SDS011;10516;51.518;9.864;2022-09-09T15:53:59;6.72;;;1.40;;
20709;SDS011;10516;51.518;9.864;2022-09-09T15:56:25;4.40;;;1.50;;
20709;SDS011;10516;51.518;9.864;2022-09-09T15:58:52;4.50;;;1.50;;
20709;SDS011;10516;51.518;9.864;2022-09-09T16:01:18;2.10;;;1.17;;
20709;SDS011;10516;51.518;9.864;2022-09-09T16:03:44;2.60;;;1.15;;
20709;SDS011;10516;51.518;9.864;2022-09-09T16:06:12;3.55;;;1.08;;
20709;SDS011;10516;51.518;9.864;2022-09-09T16:08:40;3.80;;;0.93;;
20709;SDS011;10516;51.518;9.864;2022-09-09T16:11:12;2.47;;;1.25;;
20709;SDS011;10516;51.518;9.864;2022-09-09T16:13:43;3.58;;;1.45;;
20709;SDS011;10516;51.518;9.864;2022-09-09T16:16:10;2.78;;;1.38;;
20709;SDS011;10516;51.518;9.864;2022-09-09T16:18:38;4.03;;;1.17;;
20709;SDS011;10516;51.518;9.864;2022-09-09T16:21:05;1.58;;;1.15;;
20709;SDS011;10516;51.518;9.864;2022-09-09T16:23:34;5.18;;;1.50;;
20709;SDS011;10516;51.518;9.864;2022-09-09T16:26:00;1.08;;;1.00;;
20709;SDS011;10516;51.518;9.864;2022-09-09T16:28:26;2.88;;;1.25;;
20709;SDS011;10516;51.518;9.864;2022-09-09T16:30:52;6.15;;;1.38;;
20709;SDS011;10516;51.518;9.864;2022-09-09T16:33:18;3.60;;;1.08;;
20709;SDS011;10516;51.518;9.864;2022-09-09T16:35:44;3.53;;;0.98;;
20709;SDS011;10516;51.518;9.864;2022-09-09T16:38:09;2.65;;;1.30;;
20709;SDS011;10516;51.518;9.864;2022-09-09T16:40:38;4.80;;;1.23;;
20709;SDS011;10516;51.518;9.864;2022-09-09T16:43:05;2.03;;;1.40;;
20709;SDS011;10516;51.518;9.864;2022-09-09T16:45:31;4.50;;;1.65;;
20709;SDS011;10516;51.518;9.864;2022-09-09T16:47:57;3.95;;;1.38;;
20709;SDS011;10516;51.518;9.864;2022-09-09T16:50:24;2.53;;;1.20;;
20709;SDS011;10516;51.518;9.864;2022-09-09T16:52:50;4.28;;;1.50;;
20709;SDS011;10516;51.518;9.864;2022-09-09T16:55:16;3.10;;;1.25;;
20709;SDS011;10516;51.518;9.864;2022-09-09T16:57:42;7.10;;;1.30;;
20709;SDS011;10516;51.518;9.864;2022-09-09T17:00:07;3.70;;;1.90;;
20709;SDS011;10516;51.518;9.864;2022-09-09T17:02:33;3.17;;;1.10;;